Shelby County Airport
KEET : now visible

Airfield :











YOU CAN JOIN US ON...

 
LOGIN :

Register | Disclaimer

   EN    FR    IT 

 









Legend :    VFR   Marginal VFR   IFR   Intensive IFR   Very Intensive IFR
Visi :
Ceiling :
>= 8 km
>= 3000ft
5 to 8 km
1000 to 3000 ft
1500m to 5 km
500 to 1000 ft
800 to 1500m
200 to 500 ft
< 800m
< 200 ft
Symbols :   Thunderstorms  Fog  Heavy snow  Heavy precipitations  Wind > 20 kt






- Airport Elevation : 586 ft


KEET - Shelby County

CURRENT METAR :
  • 271412Z AUTO 10004KT 3SM BR OVC002 20/19 A3015 RMK AO2 T02000194

EXPIRED METARs :
  • 271353Z AUTO 00000KT 2SM BR OVC003 20/19 A3014 RMK AO2 SLP203 T02000194
  • 271341Z AUTO VRB03KT 1 3/4SM BR OVC003 19/19 A3014 RMK AO2 T01940194
  • 271253Z AUTO 00000KT 1SM BR OVC002 19/19 A3013 RMK AO2 SLP199 T01890189
  • 271153Z AUTO 08003KT 1 3/4SM BR OVC003 19/19 A3013 RMK AO2 SLP197 T01890189 10189 20183 51007
  • 271150Z AUTO 00000KT 1 3/4SM BR OVC003 19/19 A3013 RMK AO2
  • 271139Z AUTO VRB03KT 2SM BR OVC003 19/18 A3012 RMK AO2 T01890183

TAF KEET
Valid from the 27 at 13:00 until the 28 at 12:00 UTC


271306Z 2713/2812 VRB03KT 2SM -DZ OVC003
FM271500 08005KT P6SM OVC010
FM271800 09005KT P6SM BKN025
FM272100 09005KT P6SM OVC040
FM280300 08005KT 5SM -SHRA OVC020
FM280700 11005KT 3SM -SHRA BR OVC008
KZTL FIR / North America



MET'MAP, your aeronautical weather chart ! - Copyright ORBIFLY December 2007 - Disclaimer

ORBIFLY MET'MAP TEAM :

Programming & Development : Alexandra Zaïnal
Concept & original design : Baudouin d'Aumeries
Assistance for programming : Marc-Olivier Méhu
Technical & hardware support : Manuel Goepfert

Contact : metmap@orbifly.com




SOURCES & CREDITS :

   NOAA       Earth
Advisory